createdAt,value
2022-07-28T00:01:07.725Z,97107.88
2022-07-28T00:03:57.905Z,97107.17
2022-07-28T00:06:27.125Z,97109.41
2022-07-28T00:08:57.104Z,97110.88
2022-07-28T00:11:50.392Z,97114.96
2022-07-28T00:18:05.351Z,97105.18
2022-07-28T00:24:52.783Z,97100.10
2022-07-28T00:27:48.625Z,97103.57
2022-07-28T00:34:18.847Z,97107.39
2022-07-28T00:37:06.771Z,97110.73
2022-07-28T00:40:12.796Z,97112.64
2022-07-28T00:43:19.115Z,97110.23
2022-07-28T00:46:07.724Z,97103.98
2022-07-28T00:49:14.508Z,97106.05
2022-07-28T00:52:21.269Z,97105.93
2022-07-28T00:54:50.401Z,97105.67
2022-07-28T00:57:55.731Z,97105.70
2022-07-28T01:00:44.401Z,97108.62
2022-07-28T01:03:33.959Z,97106.15
2022-07-28T01:06:34.150Z,97104.71
2022-07-28T01:09:43.669Z,97108.15
2022-07-28T01:12:34.092Z,97106.39
2022-07-28T01:15:42.487Z,97109.23
2022-07-28T01:18:33.581Z,97102.02
2022-07-28T01:21:08.617Z,97095.74
2022-07-28T01:27:11.557Z,97089.32
2022-07-28T01:30:40.450Z,97084.64
2022-07-28T01:33:53.634Z,97084.77
2022-07-28T01:36:43.427Z,97092.95
2022-07-28T01:39:31.758Z,97091.86
2022-07-28T01:42:28.414Z,97090.06
2022-07-28T01:45:34.399Z,97085.35
2022-07-28T01:48:03.425Z,97081.80
2022-07-28T01:50:52.134Z,97084.20
2022-07-28T01:56:46.729Z,97092.41
2022-07-28T01:59:54.899Z,97092.77
2022-07-28T02:02:45.996Z,97094.07
2022-07-28T02:05:34.111Z,97097.77
2022-07-28T02:08:05.491Z,97096.52
2022-07-28T02:11:09.869Z,97097.33
2022-07-28T02:14:39.125Z,97093.35
2022-07-28T02:20:36.229Z,97097.92
2022-07-28T02:23:06.122Z,97097.89
2022-07-28T02:25:56.842Z,97100.98
2022-07-28T02:29:04.762Z,97095.00
2022-07-28T02:35:09.579Z,97092.06
2022-07-28T02:38:00.824Z,97090.20
2022-07-28T02:40:52.766Z,97089.81
2022-07-28T02:46:51.385Z,97089.15
2022-07-28T02:49:57.895Z,97092.38
2022-07-28T02:52:46.688Z,97093.19
2022-07-28T02:55:53.304Z,97092.34
2022-07-28T02:59:01.406Z,97090.89
2022-07-28T03:01:49.301Z,97089.27
2022-07-28T03:05:14.698Z,97094.05
2022-07-28T03:08:57.718Z,97090.46
2022-07-28T03:12:11.862Z,97085.71
2022-07-28T03:14:41.602Z,97083.73
2022-07-28T03:17:12.667Z,97085.85
2022-07-28T03:22:28.506Z,97093.91
2022-07-28T03:24:59.510Z,97091.76
2022-07-28T03:27:50.314Z,97090.45
2022-07-28T03:30:39.438Z,97094.61
2022-07-28T03:33:45.626Z,97097.83
2022-07-28T03:36:55.411Z,97096.30
2022-07-28T03:39:47.577Z,97097.21
2022-07-28T03:48:49.290Z,97108.87
2022-07-28T03:51:36.038Z,97108.39
2022-07-28T03:54:05.725Z,97104.36
2022-07-28T03:56:34.914Z,97110.91
2022-07-28T03:59:03.900Z,97112.54
2022-07-28T04:01:50.990Z,97114.77
2022-07-28T04:04:57.777Z,97113.52
2022-07-28T04:07:46.247Z,97113.09
2022-07-28T04:11:09.770Z,97108.02
2022-07-28T04:13:57.643Z,97104.50
2022-07-28T04:17:02.700Z,97107.70
2022-07-28T04:19:31.760Z,97109.07
2022-07-28T04:28:16.594Z,97106.39
2022-07-28T04:31:03.897Z,97109.11
2022-07-28T04:33:32.654Z,97105.38
2022-07-28T04:39:44.128Z,97116.46
2022-07-28T04:45:00.567Z,97123.88
2022-07-28T04:52:08.119Z,97125.23
2022-07-28T04:54:55.401Z,97121.09
2022-07-28T05:04:12.847Z,97128.52
2022-07-28T05:07:00.705Z,97131.51
2022-07-28T05:10:13.400Z,97132.55
2022-07-28T05:18:53.557Z,97131.29
2022-07-28T05:21:41.290Z,97134.10
2022-07-28T05:24:28.820Z,97134.23
2022-07-28T05:27:33.975Z,97133.03
2022-07-28T05:30:21.490Z,97132.31
2022-07-28T05:36:17.335Z,97130.88
2022-07-28T05:41:52.398Z,97131.55
2022-07-28T05:44:21.454Z,97131.35
2022-07-28T05:50:51.915Z,97133.17
2022-07-28T05:53:21.047Z,97131.51
2022-07-28T05:59:16.349Z,97132.28
2022-07-28T06:02:22.151Z,97135.56
2022-07-28T06:05:11.891Z,97134.52
2022-07-28T06:08:00.123Z,97135.42
2022-07-28T06:11:01.807Z,97138.73
2022-07-28T06:16:55.471Z,97145.02
2022-07-28T06:19:43.962Z,97147.55
2022-07-28T06:22:42.813Z,97150.21
2022-07-28T06:28:40.153Z,97157.01
2022-07-28T06:31:27.312Z,97163.88
2022-07-28T06:33:56.851Z,97164.55
2022-07-28T06:37:04.758Z,97168.29
2022-07-28T06:40:11.257Z,97167.36
2022-07-28T06:49:50.429Z,97164.73
2022-07-28T06:53:33.646Z,97161.25
2022-07-28T06:56:57.627Z,97157.94
2022-07-28T06:59:44.885Z,97160.08
2022-07-28T07:05:38.104Z,97162.36
2022-07-28T07:08:25.841Z,97158.94
2022-07-28T07:10:56.660Z,97154.32
2022-07-28T07:13:43.740Z,97152.17
2022-07-28T07:16:12.480Z,97149.90
2022-07-28T07:19:00.083Z,97153.86
2022-07-28T07:22:12.338Z,97156.88
2022-07-28T07:24:41.516Z,97155.63
2022-07-28T07:27:31.623Z,97159.58
2022-07-28T07:30:00.237Z,97162.55
2022-07-28T07:32:47.541Z,97162.40
2022-07-28T07:35:34.603Z,97159.55
2022-07-28T07:41:45.802Z,97150.14
2022-07-28T07:45:28.431Z,97152.73
2022-07-28T07:47:57.650Z,97150.52
2022-07-28T07:51:04.846Z,97155.60
2022-07-28T07:53:52.314Z,97160.31
2022-07-28T07:56:39.791Z,97161.63
2022-07-28T07:59:26.641Z,97161.80
2022-07-28T08:02:13.986Z,97162.88
2022-07-28T08:05:03.311Z,97164.39
2022-07-28T08:07:32.595Z,97167.30
2022-07-28T08:13:27.067Z,97170.94
2022-07-28T08:20:14.465Z,97164.04
2022-07-28T08:22:50.422Z,97163.23
2022-07-28T08:25:36.838Z,97164.29
2022-07-28T08:28:24.001Z,97165.91
2022-07-28T08:31:10.878Z,97168.33
2022-07-28T08:33:58.791Z,97166.26
2022-07-28T08:36:46.058Z,97170.91
2022-07-28T08:39:15.229Z,97170.41
2022-07-28T08:42:07.001Z,97172.36
2022-07-28T08:45:04.251Z,97177.87
2022-07-28T08:48:48.129Z,97179.70
2022-07-28T08:51:35.589Z,97182.31
2022-07-28T08:54:05.914Z,97181.60
2022-07-28T08:57:35.063Z,97182.14
2022-07-28T09:00:06.231Z,97175.80
2022-07-28T09:03:13.113Z,97177.98
2022-07-28T09:06:18.487Z,97175.88
2022-07-28T09:09:07.124Z,97177.21
2022-07-28T09:12:13.051Z,97176.84
2022-07-28T09:15:20.612Z,97183.98
2022-07-28T09:18:08.216Z,97185.15
2022-07-28T09:24:02.481Z,97177.08
2022-07-28T09:26:31.297Z,97180.06
2022-07-28T09:29:18.172Z,97175.40
2022-07-28T09:32:51.224Z,97174.80
2022-07-28T09:35:43.318Z,97179.21
2022-07-28T09:38:34.236Z,97176.98
2022-07-28T09:41:40.081Z,97173.80
2022-07-28T09:44:28.380Z,97167.94
2022-07-28T09:47:15.507Z,97167.84
2022-07-28T09:50:02.332Z,97165.86
2022-07-28T09:57:10.657Z,97167.16
2022-07-28T10:07:09.625Z,97158.33
2022-07-28T10:10:20.309Z,97154.91
2022-07-28T10:13:26.925Z,97153.28
2022-07-28T10:16:13.184Z,97158.58
2022-07-28T10:18:41.913Z,97153.05
2022-07-28T10:21:47.434Z,97154.21
2022-07-28T10:24:36.342Z,97152.12
2022-07-28T10:27:25.716Z,97146.21
2022-07-28T10:30:15.267Z,97145.63
2022-07-28T10:33:02.850Z,97147.44
2022-07-28T10:42:22.230Z,97135.16
2022-07-28T10:48:16.659Z,97136.14
2022-07-28T10:50:48.774Z,97131.52
2022-07-28T10:53:30.404Z,97128.36
2022-07-28T10:57:08.182Z,97129.06
2022-07-28T11:00:24.475Z,97122.39
2022-07-28T11:02:58.211Z,97116.14
2022-07-28T11:12:33.610Z,97110.60
2022-07-28T11:21:17.454Z,97111.59
2022-07-28T11:24:05.787Z,97106.69
2022-07-28T11:27:48.005Z,97108.90
2022-07-28T11:30:52.397Z,97100.98
2022-07-28T11:34:18.273Z,97091.77
2022-07-28T11:37:02.344Z,97089.45
2022-07-28T11:39:51.420Z,97088.28
2022-07-28T11:42:51.592Z,97085.78
2022-07-28T11:45:59.820Z,97090.64
2022-07-28T11:52:30.808Z,97085.90
2022-07-28T11:55:17.449Z,97081.64
2022-07-28T12:03:54.965Z,97063.59
2022-07-28T12:07:02.159Z,97066.52
2022-07-28T12:09:41.363Z,97067.63
2022-07-28T12:12:11.276Z,97064.31
2022-07-28T12:15:06.723Z,97070.31
2022-07-28T12:18:30.399Z,97065.85
2022-07-28T12:21:35.135Z,97064.00
2022-07-28T12:24:21.630Z,97059.32
2022-07-28T12:27:31.959Z,97059.54
2022-07-28T12:30:28.723Z,97058.21
2022-07-28T12:33:29.720Z,97052.40
2022-07-28T12:36:00.421Z,97047.51
2022-07-28T12:39:12.802Z,97051.52
2022-07-28T12:42:19.012Z,97047.96
2022-07-28T12:45:08.472Z,97043.02
2022-07-28T12:47:57.118Z,97043.58
2022-07-28T12:51:49.381Z,97044.73
2022-07-28T12:55:12.510Z,97041.02
2022-07-28T12:58:18.184Z,97035.45
2022-07-28T13:03:52.004Z,97032.08
2022-07-28T13:06:41.460Z,97026.80
2022-07-28T13:12:20.212Z,97012.56
2022-07-28T13:14:52.245Z,97012.98
2022-07-28T13:18:16.519Z,97011.27
2022-07-28T13:27:02.605Z,97002.03
2022-07-28T13:33:00.106Z,96988.00
2022-07-28T13:36:24.802Z,96989.58
2022-07-28T13:39:31.327Z,96989.45
2022-07-28T13:42:19.171Z,96984.14
2022-07-28T13:45:42.725Z,96983.80
2022-07-28T13:48:57.714Z,96984.62
2022-07-28T13:51:28.447Z,96984.61
2022-07-28T13:54:15.161Z,96983.35
2022-07-28T13:57:02.230Z,96981.27
2022-07-28T13:59:49.954Z,96982.17
2022-07-28T14:03:14.110Z,96979.57
2022-07-28T14:06:38.061Z,96974.15
2022-07-28T14:12:13.568Z,96975.16
2022-07-28T14:14:48.513Z,96974.15
2022-07-28T14:17:44.751Z,96978.92
2022-07-28T14:21:27.535Z,96977.98
2022-07-28T14:23:56.605Z,96973.09
2022-07-28T14:26:43.791Z,96973.02
2022-07-28T14:29:31.685Z,96973.47
2022-07-28T14:32:18.652Z,96967.05
2022-07-28T14:34:47.369Z,96966.33
2022-07-28T14:37:17.144Z,96969.64
2022-07-28T14:39:46.187Z,96980.52
2022-07-28T14:42:14.916Z,96983.68
2022-07-28T14:45:05.060Z,96982.48
2022-07-28T14:54:03.460Z,96981.28
2022-07-28T14:56:32.231Z,96979.86
2022-07-28T14:59:19.429Z,96975.52
2022-07-28T15:02:29.669Z,96973.11
2022-07-28T15:05:34.804Z,96974.23
2022-07-28T15:08:27.989Z,96987.34
2022-07-28T15:10:58.488Z,97001.43
2022-07-28T15:14:23.047Z,97005.55
2022-07-28T15:17:10.669Z,97021.26
2022-07-28T15:20:37.556Z,97037.53
2022-07-28T15:23:08.359Z,97046.67
2022-07-28T15:25:56.041Z,97022.98
2022-07-28T15:33:03.545Z,97040.23
2022-07-28T15:35:56.503Z,97074.46
2022-07-28T15:39:26.344Z,97108.67
2022-07-28T15:42:36.421Z,97143.71
2022-07-28T15:47:58.359Z,97146.29
2022-07-28T15:51:03.090Z,97142.30
2022-07-28T15:54:09.494Z,97134.98
2022-07-28T15:56:38.638Z,97128.21
2022-07-28T15:59:26.776Z,97141.60
2022-07-28T16:05:21.985Z,97153.17
2022-07-28T16:08:08.951Z,97161.48
2022-07-28T16:11:13.882Z,97172.80
2022-07-28T16:14:20.035Z,97162.81
2022-07-28T16:17:06.668Z,97177.77
2022-07-28T16:19:48.593Z,97178.11
2022-07-28T16:22:40.165Z,97175.98
2022-07-28T16:25:46.130Z,97168.14
2022-07-28T16:28:15.826Z,97159.98
2022-07-28T16:44:25.411Z,97142.92
2022-07-28T16:49:46.021Z,97121.68
2022-07-28T16:52:51.448Z,97107.59
2022-07-28T16:59:03.732Z,97078.59
2022-07-28T17:01:51.502Z,97067.16
2022-07-28T17:04:57.524Z,97067.23
2022-07-28T17:10:31.983Z,97080.38
2022-07-28T17:13:00.979Z,97081.77
2022-07-28T17:15:48.850Z,97079.64
2022-07-28T17:19:11.809Z,97081.71
2022-07-28T17:21:40.780Z,97093.81
2022-07-28T17:27:38.549Z,97106.27
2022-07-28T17:34:28.928Z,97106.72
2022-07-28T17:37:00.784Z,97103.77
2022-07-28T17:39:48.359Z,97102.86
2022-07-28T17:42:54.165Z,97105.61
2022-07-28T17:45:26.556Z,97097.98
2022-07-28T17:48:31.749Z,97115.39
2022-07-28T17:55:02.055Z,97136.65
2022-07-28T17:58:29.903Z,97142.89
2022-07-28T18:01:34.824Z,97141.75
2022-07-28T18:04:21.800Z,97149.35
2022-07-28T18:07:30.293Z,97161.69
2022-07-28T18:10:36.116Z,97188.50
2022-07-28T18:13:25.172Z,97214.98
2022-07-28T18:15:54.317Z,97221.64
2022-07-28T18:19:19.029Z,97215.38
2022-07-28T18:23:00.393Z,97210.14
2022-07-28T18:26:24.091Z,97220.96
2022-07-28T18:29:11.017Z,97243.30
2022-07-28T18:32:00.107Z,97242.13
2022-07-28T18:34:29.428Z,97241.27
2022-07-28T18:37:17.195Z,97239.06
2022-07-28T18:39:46.190Z,97240.21
2022-07-28T18:42:15.656Z,97245.60
2022-07-28T18:44:44.350Z,97244.63
2022-07-28T18:47:13.199Z,97244.52
2022-07-28T18:50:00.629Z,97242.08
2022-07-28T18:53:05.092Z,97245.66
2022-07-28T18:55:52.230Z,97255.06
2022-07-28T18:58:39.916Z,97256.74
2022-07-28T19:10:27.398Z,97284.13
2022-07-28T19:13:00.239Z,97281.56
2022-07-28T19:16:05.503Z,97278.27
2022-07-28T19:18:34.318Z,97281.38
2022-07-28T19:21:03.348Z,97288.50
2022-07-28T19:24:09.083Z,97291.77
2022-07-28T19:30:36.826Z,97295.44
2022-07-28T19:33:29.467Z,97290.64
2022-07-28T19:36:17.377Z,97289.16
2022-07-28T19:39:05.130Z,97289.02
2022-07-28T19:42:09.758Z,97281.77
2022-07-28T19:45:15.072Z,97280.29
2022-07-28T19:48:03.314Z,97284.05
2022-07-28T19:51:09.002Z,97287.93
2022-07-28T19:53:37.991Z,97288.16
2022-07-28T19:56:45.673Z,97282.46
2022-07-28T19:59:52.209Z,97287.56
2022-07-28T20:05:45.924Z,97300.20
2022-07-28T20:15:39.403Z,97302.55
2022-07-28T20:18:27.099Z,97299.40
2022-07-28T20:24:39.029Z,97301.61
2022-07-28T20:27:44.205Z,97308.36
2022-07-28T20:33:38.978Z,97321.00
2022-07-28T20:36:30.042Z,97321.64
2022-07-28T20:39:07.854Z,97320.52
2022-07-28T20:41:50.658Z,97321.13
2022-07-28T20:45:13.735Z,97320.30
2022-07-28T20:53:57.944Z,97324.34
2022-07-28T20:59:32.678Z,97325.64
2022-07-28T21:12:13.200Z,97333.30
2022-07-28T21:15:20.208Z,97329.41
2022-07-28T21:24:58.923Z,97324.77
2022-07-28T21:28:04.848Z,97320.82
2022-07-28T21:31:09.979Z,97322.44
2022-07-28T21:33:57.508Z,97324.55
2022-07-28T21:40:46.678Z,97333.73
2022-07-28T21:44:09.771Z,97336.01
2022-07-28T21:47:00.274Z,97340.36
2022-07-28T21:49:47.349Z,97340.18
2022-07-28T21:52:37.991Z,97344.04
2022-07-28T21:58:33.044Z,97347.23
2022-07-28T22:01:23.539Z,97357.51
2022-07-28T22:04:29.247Z,97363.05
2022-07-28T22:07:35.115Z,97369.69
2022-07-28T22:17:29.363Z,97363.72
2022-07-28T22:20:35.969Z,97364.59
2022-07-28T22:23:05.134Z,97369.29
2022-07-28T22:26:23.038Z,97368.71
2022-07-28T22:29:28.399Z,97370.71
2022-07-28T22:35:23.354Z,97367.41
2022-07-28T22:38:11.122Z,97368.66
2022-07-28T22:41:17.009Z,97368.70
2022-07-28T22:44:06.961Z,97371.35
2022-07-28T22:46:36.064Z,97374.67
2022-07-28T22:51:52.620Z,97369.29
2022-07-28T22:54:21.395Z,97372.33
2022-07-28T22:57:27.922Z,97374.73
2022-07-28T22:59:57.839Z,97374.54
2022-07-28T23:02:28.141Z,97379.62
2022-07-28T23:05:37.644Z,97377.12
2022-07-28T23:08:26.340Z,97371.62
2022-07-28T23:11:32.909Z,97374.83
2022-07-28T23:14:21.369Z,97380.21
2022-07-28T23:17:09.402Z,97385.75
2022-07-28T23:19:39.220Z,97384.67
2022-07-28T23:25:33.116Z,97379.19
2022-07-28T23:28:21.059Z,97380.20
2022-07-28T23:31:27.504Z,97383.73
2022-07-28T23:34:16.569Z,97387.69
2022-07-28T23:37:05.402Z,97392.53
2022-07-28T23:39:34.979Z,97389.92
2022-07-28T23:42:41.344Z,97387.22
2022-07-28T23:46:25.046Z,97386.94
2022-07-28T23:49:31.967Z,97384.05
2022-07-28T23:52:01.687Z,97384.91
2022-07-28T23:54:31.816Z,97385.83
2022-07-28T23:57:02.512Z,97384.27
